Strona główna
METAR-TAF:

METAR-TAF

Lotnisko :

Leconfield, Anglia

Szerokość geograficzna: 53-52-37N, Długość geograficzna: 0-26-15W, wysokość: 7 m

Aktualna obserwacja pogody

Raport powstał 1 godzina i 5 minut temu, godzina 04:50 UTC
Wiatr 4 kt od północno-północny zachód
Temperatura 9°C
Wilgotność 100%
Ciśnienie 1026 hPa
Widzialność 10 km lub więcej

METAR: EGXV 010450Z AUTO 33004KT 9999 NCD 09/09 Q1026

czas: 06:55 (05:55 UTC)


TAF: brakujący

Obserwacja i prognoza pogody dla ponad 4000 lotnisk (raport METAR i TAF).

Dostępne stacje oznaczono żółtymi i czerwonymi punktami na mapie.

Najedź kursorem aby zobaczyć nazwę stacji.

Kliknij aby zobaczyć obserwacje i prognozy pogody.

Aby zmienić mapę: kliknij na zielony przycisk z czarnym krzyżykiem, aby powiększyć; na zielony przycisk z myślnikiem, aby pomniejszyć; na zielone strzałki, aby przejść do map sąsiednich.


METAR-TAF: